createdAt,value
2023-12-21T00:01:23.613Z,0.90
2023-12-21T00:03:50.073Z,0.93
2023-12-21T00:06:16.757Z,0.97
2023-12-21T00:08:43.318Z,0.96
2023-12-21T00:11:09.814Z,1.02
2023-12-21T00:13:36.381Z,1.04
2023-12-21T00:16:02.817Z,1.03
2023-12-21T00:18:29.856Z,1.05
2023-12-21T00:20:56.322Z,1.01
2023-12-21T00:23:22.773Z,0.98
2023-12-21T00:25:49.192Z,1.01
2023-12-21T00:28:15.868Z,1.05
2023-12-21T00:30:42.322Z,1.02
2023-12-21T00:33:09.240Z,1.02
2023-12-21T00:35:35.687Z,0.97
2023-12-21T00:38:02.051Z,0.96
2023-12-21T00:40:28.510Z,1.00
2023-12-21T00:42:55.002Z,0.98
2023-12-21T00:45:21.429Z,0.97
2023-12-21T00:47:48.216Z,0.97
2023-12-21T00:50:14.823Z,0.95
2023-12-21T00:52:41.265Z,0.96
2023-12-21T00:55:08.042Z,0.97
2023-12-21T00:57:34.499Z,0.98
2023-12-21T01:00:00.906Z,0.99
2023-12-21T01:02:27.289Z,1.02
2023-12-21T01:04:53.690Z,1.05
2023-12-21T01:07:20.132Z,1.03
2023-12-21T01:09:46.639Z,1.02
2023-12-21T01:12:13.099Z,1.00
2023-12-21T01:14:39.565Z,0.96
2023-12-21T01:17:06.038Z,0.94
2023-12-21T01:19:32.735Z,0.94
2023-12-21T01:21:59.169Z,0.96
2023-12-21T01:24:25.553Z,0.99
2023-12-21T01:26:52.094Z,1.02
2023-12-21T01:29:18.495Z,1.06
2023-12-21T01:31:44.898Z,1.08
2023-12-21T01:34:11.472Z,1.06
2023-12-21T01:36:37.897Z,1.10
2023-12-21T01:39:04.517Z,1.07
2023-12-21T01:41:31.014Z,1.11
2023-12-21T01:43:57.396Z,1.13
2023-12-21T01:46:24.930Z,1.12
2023-12-21T01:48:51.933Z,1.14
2023-12-21T01:51:18.665Z,1.13
2023-12-21T01:53:45.038Z,1.23
2023-12-21T01:56:11.432Z,1.17
2023-12-21T01:58:38.205Z,1.18
2023-12-21T02:01:04.914Z,1.19
2023-12-21T02:03:31.445Z,1.20
2023-12-21T02:05:57.883Z,1.20
2023-12-21T02:08:24.289Z,1.24
2023-12-21T02:10:50.873Z,1.29
2023-12-21T02:13:17.370Z,1.27
2023-12-21T02:15:43.777Z,1.27
2023-12-21T02:18:10.289Z,1.24
2023-12-21T02:20:36.769Z,1.22
2023-12-21T02:23:04.826Z,1.24
2023-12-21T02:25:32.116Z,1.24
2023-12-21T02:27:58.611Z,1.26
2023-12-21T02:30:25.043Z,1.33
2023-12-21T02:32:51.679Z,1.34
2023-12-21T02:35:18.218Z,1.32
2023-12-21T02:37:44.625Z,1.38
2023-12-21T02:40:11.547Z,1.39
2023-12-21T02:42:38.139Z,1.40
2023-12-21T02:45:04.708Z,1.42
2023-12-21T02:47:31.175Z,1.41
2023-12-21T02:49:57.586Z,1.43
2023-12-21T02:52:24.074Z,1.47
2023-12-21T02:54:50.504Z,1.45
2023-12-21T02:57:16.875Z,1.44
2023-12-21T02:59:43.660Z,1.32
2023-12-21T03:02:10.166Z,1.39
2023-12-21T03:04:36.698Z,1.44
2023-12-21T03:07:04.091Z,1.45
2023-12-21T03:09:30.716Z,1.45
2023-12-21T03:11:57.100Z,1.38
2023-12-21T03:14:23.628Z,1.52
2023-12-21T03:16:50.462Z,1.54
2023-12-21T03:19:16.964Z,1.53
2023-12-21T03:21:43.389Z,1.54
2023-12-21T03:24:10.309Z,1.58
2023-12-21T03:26:36.819Z,1.60
2023-12-21T03:29:03.241Z,1.61
2023-12-21T03:31:29.771Z,1.64
2023-12-21T03:33:56.250Z,1.63
2023-12-21T03:36:22.890Z,1.69
2023-12-21T03:38:49.324Z,1.72
2023-12-21T03:41:15.726Z,1.67
2023-12-21T03:43:42.114Z,1.73
2023-12-21T03:46:09.060Z,1.73
2023-12-21T03:48:35.503Z,1.70
2023-12-21T03:51:02.005Z,1.72
2023-12-21T03:53:28.413Z,1.68
2023-12-21T03:55:54.793Z,1.64
2023-12-21T03:58:21.172Z,1.65
2023-12-21T04:00:47.613Z,1.68
2023-12-21T04:03:14.044Z,1.72
2023-12-21T04:05:42.539Z,1.78
2023-12-21T04:08:09.229Z,1.77
2023-12-21T04:10:36.209Z,1.79
2023-12-21T04:13:02.664Z,1.83
2023-12-21T04:15:29.089Z,1.86
2023-12-21T04:17:55.592Z,1.87
2023-12-21T04:20:22.037Z,1.85
2023-12-21T04:22:48.700Z,1.90
2023-12-21T04:25:15.337Z,1.85
2023-12-21T04:27:41.797Z,1.87
2023-12-21T04:30:08.639Z,1.86
2023-12-21T04:32:35.151Z,1.88
2023-12-21T04:35:01.627Z,1.91
2023-12-21T04:37:28.242Z,1.89
2023-12-21T04:39:54.651Z,1.94
2023-12-21T04:42:21.027Z,1.93
2023-12-21T04:44:47.563Z,1.89
2023-12-21T04:47:22.770Z,1.90
2023-12-21T04:49:50.770Z,1.90
2023-12-21T04:52:17.190Z,1.91
2023-12-21T04:54:43.571Z,1.92
2023-12-21T04:57:10.100Z,1.89
2023-12-21T04:59:39.444Z,1.92
2023-12-21T05:02:05.870Z,1.94
2023-12-21T05:04:32.453Z,1.93
2023-12-21T05:06:58.988Z,1.98
2023-12-21T05:09:25.482Z,1.96
2023-12-21T05:11:51.987Z,1.97
2023-12-21T05:14:18.366Z,1.95
2023-12-21T05:16:44.860Z,1.98
2023-12-21T05:19:11.312Z,1.99
2023-12-21T05:21:37.763Z,1.96
2023-12-21T05:24:04.317Z,1.97
2023-12-21T05:26:30.709Z,2.00
2023-12-21T05:28:58.803Z,2.00
2023-12-21T05:31:25.325Z,2.01
2023-12-21T05:33:52.238Z,2.09
2023-12-21T05:36:22.019Z,2.08
2023-12-21T05:38:48.519Z,2.10
2023-12-21T05:41:14.970Z,2.14
2023-12-21T05:43:41.622Z,2.18
2023-12-21T05:46:08.092Z,2.21
2023-12-21T05:48:34.536Z,2.22
2023-12-21T05:51:01.056Z,2.21
2023-12-21T05:53:31.250Z,2.23
2023-12-21T05:55:57.885Z,2.31
2023-12-21T05:58:24.364Z,2.28
2023-12-21T06:00:50.857Z,2.32
2023-12-21T06:03:17.329Z,2.35
2023-12-21T06:05:43.738Z,2.36
2023-12-21T06:08:10.316Z,2.38
2023-12-21T06:10:36.801Z,2.40
2023-12-21T06:13:03.270Z,2.36
2023-12-21T06:15:29.732Z,2.41
2023-12-21T06:17:56.169Z,2.43
2023-12-21T06:20:22.765Z,2.43
2023-12-21T06:22:49.516Z,2.41
2023-12-21T06:25:16.162Z,2.43
2023-12-21T06:27:42.578Z,2.43
2023-12-21T06:30:09.174Z,2.41
2023-12-21T06:32:35.715Z,2.41
2023-12-21T06:35:02.290Z,2.41
2023-12-21T06:37:28.936Z,2.38
2023-12-21T06:39:55.900Z,2.35
2023-12-21T06:42:22.608Z,2.39
2023-12-21T06:44:50.027Z,2.40
2023-12-21T06:47:17.616Z,2.34
2023-12-21T06:49:44.126Z,2.34
2023-12-21T06:52:10.663Z,2.39
2023-12-21T06:54:37.281Z,2.39
2023-12-21T06:57:03.799Z,2.38
2023-12-21T06:59:31.359Z,2.37
2023-12-21T07:01:57.985Z,2.41
2023-12-21T07:04:24.614Z,2.40
2023-12-21T07:06:52.106Z,2.46
2023-12-21T07:09:18.872Z,2.42
2023-12-21T07:11:46.735Z,2.44
2023-12-21T07:14:13.778Z,2.46
2023-12-21T07:16:40.305Z,2.47
2023-12-21T07:19:07.451Z,2.49
2023-12-21T07:21:34.082Z,2.48
2023-12-21T07:24:00.490Z,2.50
2023-12-21T07:26:27.836Z,2.49
2023-12-21T07:28:54.260Z,2.51
2023-12-21T07:31:20.908Z,2.48
2023-12-21T07:33:48.122Z,2.44
2023-12-21T07:36:17.536Z,2.52
2023-12-21T07:38:43.928Z,2.53
2023-12-21T07:41:11.504Z,2.46
2023-12-21T07:43:40.102Z,2.48
2023-12-21T07:46:09.398Z,2.50
2023-12-21T07:48:36.206Z,2.50
2023-12-21T07:51:02.724Z,2.48
2023-12-21T07:53:29.391Z,2.43
2023-12-21T07:55:55.897Z,2.49
2023-12-21T07:58:22.402Z,2.44
2023-12-21T08:00:49.006Z,2.42
2023-12-21T08:03:15.497Z,2.47
2023-12-21T08:05:41.933Z,2.45
2023-12-21T08:08:08.405Z,2.46
2023-12-21T08:10:34.984Z,2.52
2023-12-21T08:13:01.627Z,2.48
2023-12-21T08:15:28.171Z,2.53
2023-12-21T08:17:57.202Z,2.53
2023-12-21T08:20:24.209Z,2.48
2023-12-21T08:22:50.854Z,2.50
2023-12-21T08:25:17.606Z,2.49
2023-12-21T08:27:44.135Z,2.49
2023-12-21T08:30:11.352Z,2.47
2023-12-21T08:32:37.938Z,2.52
2023-12-21T08:35:05.912Z,2.50
2023-12-21T08:37:32.516Z,2.39
2023-12-21T08:39:59.733Z,2.43
2023-12-21T08:42:28.153Z,2.44
2023-12-21T08:44:54.693Z,2.46
2023-12-21T08:47:21.143Z,2.49
2023-12-21T08:49:49.031Z,2.45
2023-12-21T08:52:15.699Z,2.50
2023-12-21T08:54:42.382Z,2.50
2023-12-21T08:57:08.772Z,2.47
2023-12-21T08:59:35.986Z,2.54
2023-12-21T09:02:02.563Z,2.51
2023-12-21T09:04:29.011Z,2.54
2023-12-21T09:06:55.417Z,2.49
2023-12-21T09:09:21.802Z,2.51
2023-12-21T09:11:48.241Z,2.60
2023-12-21T09:14:14.662Z,2.66
2023-12-21T09:16:41.456Z,2.59
2023-12-21T09:19:08.242Z,2.56
2023-12-21T09:21:36.714Z,2.61
2023-12-21T09:24:03.175Z,2.52
2023-12-21T09:26:29.655Z,2.53
2023-12-21T09:28:56.224Z,2.53
2023-12-21T09:31:23.038Z,2.53
2023-12-21T09:33:49.504Z,2.47
2023-12-21T09:36:16.293Z,2.53
2023-12-21T09:38:42.696Z,2.49
2023-12-21T09:41:09.082Z,2.51
2023-12-21T09:43:35.540Z,2.57
2023-12-21T09:46:02.828Z,2.53
2023-12-21T09:48:29.392Z,2.54
2023-12-21T09:50:56.112Z,2.40
2023-12-21T09:53:25.679Z,2.51
2023-12-21T09:55:52.235Z,2.46
2023-12-21T09:58:19.513Z,2.46
2023-12-21T10:00:46.480Z,2.52
2023-12-21T10:03:12.933Z,2.50
2023-12-21T10:05:41.385Z,2.44
2023-12-21T10:08:08.900Z,2.52
2023-12-21T10:10:35.325Z,2.54
2023-12-21T10:13:02.011Z,2.50
2023-12-21T10:15:29.175Z,2.55
2023-12-21T10:17:55.608Z,2.64
2023-12-21T10:20:24.470Z,2.63
2023-12-21T10:22:51.242Z,2.62
2023-12-21T10:25:18.947Z,2.65
2023-12-21T10:27:55.355Z,2.56
2023-12-21T10:30:24.131Z,2.58
2023-12-21T10:32:57.180Z,2.65
2023-12-21T10:35:24.764Z,2.72
2023-12-21T10:37:51.322Z,2.68
2023-12-21T10:40:18.303Z,2.72
2023-12-21T10:42:48.620Z,2.73
2023-12-21T10:45:25.657Z,2.67
2023-12-21T10:48:02.158Z,2.70
2023-12-21T10:50:29.839Z,2.75
2023-12-21T10:52:56.515Z,2.79
2023-12-21T10:55:23.028Z,2.88
2023-12-21T10:57:49.574Z,2.78
2023-12-21T11:00:18.938Z,2.79
2023-12-21T11:02:50.154Z,2.81
2023-12-21T11:05:29.008Z,2.90
2023-12-21T11:07:56.205Z,2.85
2023-12-21T11:10:23.320Z,2.82
2023-12-21T11:12:50.071Z,2.80
2023-12-21T11:15:16.965Z,2.79
2023-12-21T11:17:44.560Z,2.77
2023-12-21T11:20:11.355Z,2.77
2023-12-21T11:22:39.307Z,2.79
2023-12-21T11:25:08.900Z,2.73
2023-12-21T11:27:38.060Z,2.71
2023-12-21T11:30:09.544Z,2.72
2023-12-21T11:32:36.204Z,2.70
2023-12-21T11:35:02.680Z,2.72
2023-12-21T11:37:29.257Z,2.67
2023-12-21T11:40:05.505Z,2.65
2023-12-21T11:42:35.403Z,2.67
2023-12-21T11:45:07.731Z,2.62
2023-12-21T11:47:34.306Z,2.63
2023-12-21T11:50:19.655Z,2.64
2023-12-21T11:52:48.161Z,2.63
2023-12-21T11:55:24.226Z,2.61
2023-12-21T11:57:50.683Z,2.61
2023-12-21T12:00:17.727Z,2.59
2023-12-21T12:02:48.378Z,2.66
2023-12-21T12:05:20.970Z,2.64
2023-12-21T12:07:47.938Z,2.66
2023-12-21T12:10:14.344Z,2.66
2023-12-21T12:12:43.801Z,2.70
2023-12-21T12:15:10.295Z,2.72
2023-12-21T12:17:45.828Z,2.74
2023-12-21T12:20:13.248Z,2.77
2023-12-21T12:22:39.744Z,2.83
2023-12-21T12:25:06.425Z,2.88
2023-12-21T12:27:32.972Z,2.92
2023-12-21T12:29:59.342Z,2.95
2023-12-21T12:32:26.344Z,3.03
2023-12-21T12:34:52.844Z,3.08
2023-12-21T12:37:19.674Z,3.08
2023-12-21T12:39:49.307Z,3.08
2023-12-21T12:42:16.673Z,3.16
2023-12-21T12:44:43.123Z,3.18
2023-12-21T12:47:10.638Z,3.21
2023-12-21T12:49:39.740Z,3.26
2023-12-21T12:52:06.822Z,3.30
2023-12-21T12:54:33.473Z,3.32
2023-12-21T12:57:03.338Z,3.37
2023-12-21T12:59:29.963Z,3.40
2023-12-21T13:01:56.398Z,3.42
2023-12-21T13:04:22.972Z,3.48
2023-12-21T13:06:50.760Z,3.52
2023-12-21T13:09:17.274Z,3.55
2023-12-21T13:11:43.699Z,3.59
2023-12-21T13:14:11.991Z,3.61
2023-12-21T13:16:38.593Z,3.66
2023-12-21T13:19:06.378Z,3.72
2023-12-21T13:21:33.666Z,3.73
2023-12-21T13:24:00.851Z,3.78
2023-12-21T13:26:29.333Z,3.83
2023-12-21T13:28:56.227Z,3.99
2023-12-21T13:31:23.217Z,4.06
2023-12-21T13:33:49.696Z,4.10
2023-12-21T13:36:16.148Z,4.18
2023-12-21T13:38:42.755Z,4.17
2023-12-21T13:41:10.369Z,4.27
2023-12-21T13:43:37.320Z,4.27
2023-12-21T13:46:04.138Z,4.32
2023-12-21T13:48:30.672Z,4.40
2023-12-21T13:50:57.263Z,4.52
2023-12-21T13:53:23.647Z,4.53
2023-12-21T13:55:50.166Z,4.59
2023-12-21T13:58:16.697Z,4.72
2023-12-21T14:00:43.229Z,4.74
2023-12-21T14:03:10.182Z,4.85
2023-12-21T14:05:36.739Z,4.91
2023-12-21T14:08:03.456Z,4.98
2023-12-21T14:10:30.193Z,5.04
2023-12-21T14:12:58.802Z,5.11
2023-12-21T14:15:25.730Z,5.17
2023-12-21T14:17:52.263Z,5.16
2023-12-21T14:20:23.562Z,5.17
2023-12-21T14:22:51.127Z,5.22
2023-12-21T14:25:17.854Z,5.25
2023-12-21T14:27:44.330Z,5.29
2023-12-21T14:30:11.073Z,5.32
2023-12-21T14:32:37.512Z,5.38
2023-12-21T14:35:04.612Z,5.40
2023-12-21T14:37:31.183Z,5.40
2023-12-21T14:39:57.808Z,5.48
2023-12-21T14:42:25.118Z,5.41
2023-12-21T14:44:54.738Z,5.48
2023-12-21T14:47:21.283Z,5.48
2023-12-21T14:49:48.226Z,5.53
2023-12-21T14:52:14.889Z,5.57
2023-12-21T14:54:41.431Z,5.62
2023-12-21T14:57:08.130Z,5.64
2023-12-21T14:59:34.625Z,5.68
2023-12-21T15:02:01.079Z,5.71
2023-12-21T15:04:28.081Z,5.76
2023-12-21T15:06:56.184Z,5.76
2023-12-21T15:09:22.836Z,5.73
2023-12-21T15:11:49.233Z,5.75
2023-12-21T15:14:15.892Z,5.76
2023-12-21T15:16:42.386Z,5.80
2023-12-21T15:19:11.334Z,5.83
2023-12-21T15:21:37.912Z,5.91
2023-12-21T15:24:04.779Z,5.93
2023-12-21T15:26:31.495Z,5.93
2023-12-21T15:28:58.061Z,5.95
2023-12-21T15:31:24.574Z,6.00
2023-12-21T15:33:51.275Z,6.01
2023-12-21T15:36:18.007Z,6.02
2023-12-21T15:38:44.482Z,6.08
2023-12-21T15:41:17.779Z,6.08
2023-12-21T15:43:44.786Z,6.16
2023-12-21T15:46:11.321Z,6.15
2023-12-21T15:48:37.784Z,6.14
2023-12-21T15:51:04.622Z,6.24
2023-12-21T15:53:31.348Z,6.27
2023-12-21T15:55:57.838Z,6.22
2023-12-21T15:58:24.713Z,6.22
2023-12-21T16:00:51.662Z,6.20
2023-12-21T16:03:18.549Z,6.20
2023-12-21T16:05:45.200Z,6.23
2023-12-21T16:08:12.411Z,6.21
2023-12-21T16:10:38.806Z,6.19
2023-12-21T16:13:05.540Z,6.17
2023-12-21T16:15:32.282Z,6.13
2023-12-21T16:17:59.317Z,6.15
2023-12-21T16:20:26.046Z,6.18
2023-12-21T16:22:52.877Z,6.20
2023-12-21T16:25:19.326Z,6.17
2023-12-21T16:27:45.739Z,6.16
2023-12-21T16:30:15.490Z,6.15
2023-12-21T16:32:42.192Z,6.14
2023-12-21T16:35:08.889Z,6.18
2023-12-21T16:37:35.545Z,6.17
2023-12-21T16:40:02.127Z,6.25
2023-12-21T16:42:28.694Z,6.25
2023-12-21T16:44:56.314Z,6.26
2023-12-21T16:47:22.791Z,6.24
2023-12-21T16:49:49.342Z,6.21
2023-12-21T16:52:16.036Z,6.18
2023-12-21T16:54:42.845Z,6.20
2023-12-21T16:57:09.430Z,6.12
2023-12-21T16:59:35.884Z,6.12
2023-12-21T17:02:02.303Z,6.17
2023-12-21T17:04:28.881Z,6.20
2023-12-21T17:06:56.081Z,6.18
2023-12-21T17:09:22.638Z,6.19
2023-12-21T17:11:49.124Z,6.17
2023-12-21T17:14:15.547Z,6.22
2023-12-21T17:16:46.077Z,6.25
2023-12-21T17:19:13.264Z,6.25
2023-12-21T17:21:39.793Z,6.23
2023-12-21T17:24:06.265Z,6.19
2023-12-21T17:26:33.132Z,6.20
2023-12-21T17:28:59.624Z,6.20
2023-12-21T17:31:26.086Z,6.08
2023-12-21T17:33:52.654Z,6.08
2023-12-21T17:36:19.188Z,6.05
2023-12-21T17:38:45.631Z,5.94
2023-12-21T17:41:12.583Z,5.83
2023-12-21T17:43:39.125Z,5.77
2023-12-21T17:46:05.536Z,5.65
2023-12-21T17:48:32.068Z,5.57
2023-12-21T17:50:58.549Z,5.46
2023-12-21T17:53:25.044Z,5.38
2023-12-21T17:55:51.754Z,5.35
2023-12-21T17:58:19.806Z,5.28
2023-12-21T18:00:46.471Z,5.23
2023-12-21T18:03:12.923Z,5.20
2023-12-21T18:05:39.439Z,5.17
2023-12-21T18:08:06.170Z,5.20
2023-12-21T18:10:32.965Z,5.18
2023-12-21T18:12:59.581Z,5.19
2023-12-21T18:15:25.942Z,5.20
2023-12-21T18:17:52.483Z,5.22
2023-12-21T18:20:22.941Z,5.19
2023-12-21T18:22:50.334Z,5.24
2023-12-21T18:25:18.332Z,5.25
2023-12-21T18:27:45.314Z,5.18
2023-12-21T18:30:11.808Z,5.21
2023-12-21T18:32:38.298Z,5.21
2023-12-21T18:35:05.128Z,5.20
2023-12-21T18:37:31.645Z,5.25
2023-12-21T18:39:58.295Z,5.23
2023-12-21T18:42:24.749Z,5.30
2023-12-21T18:44:51.285Z,5.36
2023-12-21T18:47:18.421Z,5.35
2023-12-21T18:49:45.055Z,5.42
2023-12-21T18:52:11.569Z,5.42
2023-12-21T18:54:38.036Z,5.43
2023-12-21T18:57:05.742Z,5.43
2023-12-21T18:59:32.155Z,5.39
2023-12-21T19:01:58.774Z,5.40
2023-12-21T19:04:25.409Z,5.35
2023-12-21T19:06:51.844Z,5.31
2023-12-21T19:09:18.357Z,5.32
2023-12-21T19:11:44.833Z,5.39
2023-12-21T19:14:11.268Z,5.47
2023-12-21T19:16:43.269Z,5.43
2023-12-21T19:19:09.823Z,5.47
2023-12-21T19:21:36.222Z,5.39
2023-12-21T19:24:02.582Z,5.24
2023-12-21T19:26:28.983Z,5.22
2023-12-21T19:28:55.461Z,5.15
2023-12-21T19:31:23.965Z,5.14
2023-12-21T19:33:50.527Z,5.13
2023-12-21T19:36:17.917Z,5.18
2023-12-21T19:38:49.083Z,5.11
2023-12-21T19:41:15.699Z,5.09
2023-12-21T19:43:42.189Z,5.05
2023-12-21T19:46:08.728Z,5.04
2023-12-21T19:48:37.181Z,5.09
2023-12-21T19:51:03.755Z,5.03
2023-12-21T19:53:31.696Z,4.91
2023-12-21T19:55:58.461Z,4.66
2023-12-21T19:58:25.650Z,4.53
2023-12-21T20:00:53.394Z,4.44
2023-12-21T20:03:20.035Z,4.38
2023-12-21T20:05:46.560Z,4.35
2023-12-21T20:08:13.271Z,4.35
2023-12-21T20:10:39.979Z,4.22
2023-12-21T20:13:10.030Z,4.25
2023-12-21T20:15:36.629Z,4.31
2023-12-21T20:18:05.170Z,4.28
2023-12-21T20:20:34.822Z,4.23
2023-12-21T20:23:01.755Z,4.20
2023-12-21T20:25:28.516Z,4.19
2023-12-21T20:27:56.322Z,4.16
2023-12-21T20:30:23.224Z,4.23
2023-12-21T20:32:53.670Z,4.20
2023-12-21T20:35:20.223Z,4.20
2023-12-21T20:37:47.422Z,4.11
2023-12-21T20:40:15.097Z,4.17
2023-12-21T20:42:41.706Z,4.13
2023-12-21T20:45:08.360Z,4.07
2023-12-21T20:47:34.843Z,4.03
2023-12-21T20:50:01.581Z,4.06
2023-12-21T20:52:28.189Z,4.09
2023-12-21T20:54:56.112Z,4.10
2023-12-21T20:57:22.696Z,4.12
2023-12-21T20:59:49.053Z,4.07
2023-12-21T21:02:15.776Z,4.02
2023-12-21T21:04:42.610Z,4.06
2023-12-21T21:07:10.275Z,4.11
2023-12-21T21:09:36.907Z,4.11
2023-12-21T21:12:03.378Z,4.25
2023-12-21T21:14:29.873Z,4.23
2023-12-21T21:16:56.354Z,4.32
2023-12-21T21:19:22.851Z,4.31
2023-12-21T21:21:49.580Z,4.37
2023-12-21T21:24:16.115Z,4.30
2023-12-21T21:26:43.252Z,4.37
2023-12-21T21:29:09.693Z,4.37
2023-12-21T21:31:36.151Z,4.31
2023-12-21T21:34:02.802Z,4.29
2023-12-21T21:36:32.500Z,4.32
2023-12-21T21:38:59.403Z,4.23
2023-12-21T21:41:25.816Z,4.30
2023-12-21T21:43:52.430Z,4.23
2023-12-21T21:46:19.014Z,4.19
2023-12-21T21:48:45.726Z,4.22
2023-12-21T21:51:15.248Z,4.21
2023-12-21T21:53:45.995Z,4.25
2023-12-21T21:56:12.743Z,4.25
2023-12-21T21:58:39.283Z,4.17
2023-12-21T22:01:06.815Z,4.21
2023-12-21T22:03:34.974Z,4.17
2023-12-21T22:06:02.096Z,4.11
2023-12-21T22:08:28.985Z,4.10
2023-12-21T22:10:55.778Z,4.12
2023-12-21T22:13:22.424Z,4.17
2023-12-21T22:15:55.325Z,4.16
2023-12-21T22:18:21.941Z,4.11
2023-12-21T22:20:48.847Z,4.13
2023-12-21T22:23:15.450Z,4.09
2023-12-21T22:25:42.381Z,4.09
2023-12-21T22:28:09.190Z,4.09
2023-12-21T22:30:35.697Z,4.07
2023-12-21T22:33:05.303Z,3.99
2023-12-21T22:35:32.183Z,3.83
2023-12-21T22:37:59.046Z,3.66
2023-12-21T22:40:25.896Z,3.69
2023-12-21T22:42:52.966Z,3.62
2023-12-21T22:45:20.058Z,3.60
2023-12-21T22:47:47.039Z,3.55
2023-12-21T22:50:14.136Z,3.47
2023-12-21T22:52:40.751Z,3.49
2023-12-21T22:55:07.551Z,3.56
2023-12-21T22:57:35.010Z,3.47
2023-12-21T23:00:02.398Z,3.50
2023-12-21T23:02:29.213Z,3.45
2023-12-21T23:04:58.435Z,3.59
2023-12-21T23:07:29.409Z,3.44
2023-12-21T23:09:56.357Z,3.44
2023-12-21T23:12:23.272Z,3.35
2023-12-21T23:14:49.968Z,3.36
2023-12-21T23:17:16.766Z,3.26
2023-12-21T23:19:43.302Z,3.26
2023-12-21T23:22:09.776Z,3.19
2023-12-21T23:24:38.134Z,3.15
2023-12-21T23:27:07.805Z,3.15
2023-12-21T23:29:34.396Z,3.14
2023-12-21T23:32:01.178Z,3.09
2023-12-21T23:34:27.688Z,3.03
2023-12-21T23:36:55.846Z,2.99
2023-12-21T23:39:22.448Z,2.97
2023-12-21T23:41:48.906Z,2.84
2023-12-21T23:44:15.361Z,2.80
2023-12-21T23:46:41.764Z,2.78
2023-12-21T23:49:08.249Z,2.72
2023-12-21T23:51:37.167Z,2.62
2023-12-21T23:54:03.855Z,2.55
2023-12-21T23:56:30.303Z,2.49
2023-12-21T23:58:56.764Z,2.54
